Washington, District of Columbia
Traffic Map
Current Weather Conditions
Washington, District of Columbia
Broken Clouds
Broken Clouds
14°
Feels Like: 14°
Wind Chill: 14° Ceiling: 25000
Heat Index: 14° Visibility: 10mi
Dew Point: Wind: 6mph
Humidity: 70% Direction: 210° (SSW)
Pressure: 29.88in Gusts: 0mph
Raw Report DataKDCA 210752Z 21005KT 10SM FEW080 SCT110 BKN250 14/09 A2988 RMK AO2 SLP117 T01440089
Traffic Incident Summary
Active as of:
Severity:
Category:
InformationThere was an issue retrieving the traffic information for this location. Please try a different location or try again shortly.
Advertisements
Track Severe Weather on mobile